Terminal Aerodrome Forecast
Issued by NWS Buffalo, NY

Home | Current Version | Previous Version | Text Only | Print | Product List | Glossary On
Versions: 1 2 3 4 5 6 7 8 9 10 11 12 13 14 15 16 17 18 19 20 21 22 23 24
779
FTUS41 KBUF 231720
TAFBUF
TAF
KBUF 231720Z 2318/2418 VRB03KT P6SM FEW250
     FM240000 08005KT P6SM BKN110
     FM240200 13005KT P6SM BKN110
     FM240800 17012KT P6SM VCSH OVC090
     FM241000 18013KT 6SM -RA OVC035
     FM241400 20016KT P6SM BKN020 WS020/21040KT=

USA.gov is the U.S. government's official web portal to all federal, state and local government web resources and services.